createdAt,value
2018-02-04T00:00:39.797Z,18.10
2018-02-04T00:03:07.942Z,18.10
2018-02-04T00:05:36.862Z,18.10
2018-02-04T00:08:05.054Z,18.10
2018-02-04T00:10:33.257Z,18.10
2018-02-04T00:13:01.417Z,18.10
2018-02-04T00:15:29.620Z,18.10
2018-02-04T00:17:58.545Z,18.10
2018-02-04T00:20:26.698Z,18.10
2018-02-04T00:22:54.918Z,18.10
2018-02-04T00:25:23.127Z,18.10
2018-02-04T00:27:52.052Z,18.10
2018-02-04T00:30:20.262Z,18.10
2018-02-04T00:32:48.435Z,18.20
2018-02-04T00:35:16.576Z,18.20
2018-02-04T00:37:44.804Z,18.20
2018-02-04T00:40:12.961Z,18.10
2018-02-04T00:42:41.974Z,18.10
2018-02-04T00:45:11.761Z,18.10
2018-02-04T00:47:39.906Z,18.10
2018-02-04T00:50:08.050Z,18.10
2018-02-04T00:52:36.461Z,18.10
2018-02-04T00:55:04.641Z,18.10
2018-02-04T00:57:32.804Z,18.10
2018-02-04T01:00:00.998Z,18.10
2018-02-04T01:02:29.167Z,18.10
2018-02-04T01:04:57.381Z,18.10
2018-02-04T01:07:25.610Z,18.10
2018-02-04T01:09:53.773Z,18.10
2018-02-04T01:12:21.948Z,18.10
2018-02-04T01:14:50.122Z,18.10
2018-02-04T01:17:18.294Z,18.10
2018-02-04T01:19:46.464Z,18.10
2018-02-04T01:22:14.802Z,18.10
2018-02-04T01:24:43.725Z,18.10
2018-02-04T01:27:11.874Z,18.10
2018-02-04T01:29:40.044Z,18.10
2018-02-04T01:32:08.189Z,18.10
2018-02-04T01:34:36.367Z,18.10
2018-02-04T01:37:04.606Z,18.10
2018-02-04T01:39:32.772Z,18.10
2018-02-04T01:42:00.922Z,18.10
2018-02-04T01:44:29.156Z,18.10
2018-02-04T01:46:57.307Z,18.10
2018-02-04T01:49:25.467Z,18.00
2018-02-04T01:51:53.652Z,18.00
2018-02-04T01:54:21.785Z,18.00
2018-02-04T01:56:49.926Z,18.00
2018-02-04T01:59:18.885Z,18.00
2018-02-04T02:01:47.070Z,18.00
2018-02-04T02:04:15.232Z,18.00
2018-02-04T02:06:43.383Z,18.00
2018-02-04T02:09:11.620Z,18.00
2018-02-04T02:11:40.510Z,18.00
2018-02-04T02:14:09.406Z,18.00
2018-02-04T02:16:37.587Z,18.00
2018-02-04T02:21:40.892Z,18.00
2018-02-04T02:24:09.082Z,18.00
2018-02-04T02:26:37.254Z,18.00
2018-02-04T02:29:05.412Z,18.00
2018-02-04T02:31:33.632Z,18.00
2018-02-04T02:34:01.861Z,18.00
2018-02-04T02:36:30.144Z,18.00
2018-02-04T02:38:58.326Z,17.90
2018-02-04T02:41:26.469Z,17.90
2018-02-04T02:43:55.440Z,17.90
2018-02-04T02:46:23.701Z,17.90
2018-02-04T02:48:51.878Z,17.90
2018-02-04T02:51:20.028Z,17.90
2018-02-04T02:53:48.197Z,17.90
2018-02-04T02:56:16.332Z,17.90
2018-02-04T02:58:45.247Z,17.90
2018-02-04T03:01:13.481Z,17.90
2018-02-04T03:03:42.390Z,17.90
2018-02-04T03:06:10.549Z,17.90
2018-02-04T03:08:39.469Z,17.90
2018-02-04T03:11:07.628Z,17.90
2018-02-04T03:13:35.779Z,17.90
2018-02-04T03:16:04.005Z,17.90
2018-02-04T03:18:32.229Z,17.90
2018-02-04T03:21:01.184Z,17.90
2018-02-04T03:23:29.349Z,17.90
2018-02-04T03:25:57.501Z,17.90
2018-02-04T03:28:25.662Z,17.90
2018-02-04T03:30:53.830Z,17.90
2018-02-04T03:33:21.970Z,17.90
2018-02-04T03:35:50.108Z,17.90
2018-02-04T03:38:18.241Z,17.90
2018-02-04T03:40:47.313Z,17.90
2018-02-04T03:43:16.277Z,17.90
2018-02-04T03:45:44.478Z,17.90
2018-02-04T03:48:12.807Z,17.90
2018-02-04T03:50:40.961Z,17.90
2018-02-04T03:53:09.100Z,17.90
2018-02-04T03:55:37.247Z,17.90
2018-02-04T03:58:05.406Z,17.90
2018-02-04T04:00:33.550Z,17.90
2018-02-04T04:03:01.849Z,17.90
2018-02-04T04:05:30.009Z,17.90
2018-02-04T04:07:58.156Z,17.90
2018-02-04T04:10:26.361Z,17.90
2018-02-04T04:12:54.555Z,17.90
2018-02-04T04:15:22.786Z,17.90
2018-02-04T04:17:50.933Z,17.90
2018-02-04T04:20:19.086Z,17.90
2018-02-04T04:22:47.484Z,17.90
2018-02-04T04:25:15.636Z,17.90
2018-02-04T04:27:43.774Z,17.90
2018-02-04T04:30:11.938Z,17.90
2018-02-04T04:32:40.074Z,17.80
2018-02-04T04:35:08.218Z,17.80
2018-02-04T04:37:36.483Z,17.80
2018-02-04T04:40:04.648Z,17.80
2018-02-04T04:42:32.791Z,17.80
2018-02-04T04:45:00.962Z,17.80
2018-02-04T04:47:29.118Z,17.80
2018-02-04T04:49:58.026Z,17.80
2018-02-04T04:52:26.172Z,17.80
2018-02-04T04:54:54.348Z,17.80
2018-02-04T04:57:23.351Z,17.80
2018-02-04T04:59:52.257Z,17.80
2018-02-04T05:02:20.453Z,17.80
2018-02-04T05:04:48.664Z,17.80
2018-02-04T05:07:16.816Z,17.80
2018-02-04T05:09:44.961Z,17.80
2018-02-04T05:12:13.127Z,17.80
2018-02-04T05:14:41.276Z,17.80
2018-02-04T05:17:10.210Z,17.80
2018-02-04T05:19:38.382Z,17.80
2018-02-04T05:22:06.573Z,17.80
2018-02-04T05:24:34.732Z,17.80
2018-02-04T05:27:02.932Z,17.80
2018-02-04T05:29:31.069Z,17.80
2018-02-04T05:31:59.213Z,17.80
2018-02-04T05:34:28.076Z,17.80
2018-02-04T05:36:56.234Z,17.80
2018-02-04T05:39:24.392Z,17.80
2018-02-04T05:41:52.526Z,17.80
2018-02-04T05:44:20.693Z,17.80
2018-02-04T05:46:49.690Z,17.80
2018-02-04T05:49:17.848Z,17.80
2018-02-04T05:51:46.754Z,17.80
2018-02-04T05:54:14.890Z,17.80
2018-02-04T05:56:43.073Z,17.80
2018-02-04T05:59:11.984Z,17.80
2018-02-04T06:01:40.221Z,17.80
2018-02-04T06:04:08.489Z,17.90
2018-02-04T06:06:36.720Z,17.90
2018-02-04T06:09:04.885Z,18.00
2018-02-04T06:11:33.192Z,18.00
2018-02-04T06:14:01.424Z,18.10
2018-02-04T06:16:29.539Z,18.20
2018-02-04T06:18:57.816Z,18.20
2018-02-04T06:21:25.960Z,18.30
2018-02-04T06:23:54.085Z,18.30
2018-02-04T06:26:22.234Z,18.30
2018-02-04T06:28:50.477Z,18.40
2018-02-04T06:31:18.654Z,18.40
2018-02-04T06:33:46.785Z,18.40
2018-02-04T06:36:14.920Z,18.40
2018-02-04T06:38:43.072Z,18.40
2018-02-04T06:41:11.242Z,18.40
2018-02-04T06:43:39.433Z,18.40
2018-02-04T06:46:07.622Z,18.40
2018-02-04T06:48:35.863Z,18.50
2018-02-04T06:51:04.150Z,18.50
2018-02-04T06:53:32.278Z,18.50
2018-02-04T06:56:01.188Z,18.50
2018-02-04T06:58:29.328Z,18.50
2018-02-04T07:00:57.473Z,18.50
2018-02-04T07:03:25.666Z,18.50
2018-02-04T07:05:53.802Z,18.50
2018-02-04T07:08:21.956Z,18.50
2018-02-04T07:10:50.357Z,18.50
2018-02-04T07:13:18.528Z,18.50
2018-02-04T07:15:46.693Z,18.50
2018-02-04T07:18:14.876Z,18.50
2018-02-04T07:20:43.119Z,18.50
2018-02-04T07:23:12.139Z,18.50
2018-02-04T07:25:40.416Z,18.50
2018-02-04T07:28:08.590Z,18.50
2018-02-04T07:30:36.764Z,18.50
2018-02-04T07:33:04.909Z,18.50
2018-02-04T07:35:33.808Z,18.50
2018-02-04T07:38:01.997Z,18.50
2018-02-04T07:40:30.148Z,18.50
2018-02-04T07:42:58.312Z,18.50
2018-02-04T07:45:26.483Z,18.50
2018-02-04T07:47:54.652Z,18.50
2018-02-04T07:50:23.541Z,18.50
2018-02-04T07:52:52.461Z,18.50
2018-02-04T07:55:20.653Z,18.50
2018-02-04T07:57:48.885Z,18.50
2018-02-04T08:00:17.784Z,18.50
2018-02-04T08:02:45.950Z,18.50
2018-02-04T08:05:14.878Z,18.50
2018-02-04T08:07:43.029Z,18.50
2018-02-04T08:10:11.170Z,18.50
2018-02-04T08:12:39.361Z,18.50
2018-02-04T08:15:08.289Z,18.50
2018-02-04T08:17:36.533Z,18.50
2018-02-04T08:20:04.777Z,18.50
2018-02-04T08:22:33.098Z,18.50
2018-02-04T08:25:01.326Z,18.50
2018-02-04T08:27:29.587Z,18.50
2018-02-04T08:29:57.742Z,18.60
2018-02-04T08:32:25.940Z,18.60
2018-02-04T08:34:54.137Z,18.60
2018-02-04T08:37:23.094Z,18.60
2018-02-04T08:39:51.225Z,18.60
2018-02-04T08:42:19.372Z,18.60
2018-02-04T08:44:47.557Z,18.60
2018-02-04T08:47:15.702Z,18.60
2018-02-04T08:49:43.898Z,18.60
2018-02-04T08:52:12.045Z,18.60
2018-02-04T08:54:40.202Z,18.60
2018-02-04T08:57:08.364Z,18.60
2018-02-04T08:59:36.544Z,18.60
2018-02-04T09:02:04.729Z,18.60
2018-02-04T09:04:32.882Z,18.60
2018-02-04T09:07:01.026Z,18.60
2018-02-04T09:09:29.169Z,18.60
2018-02-04T09:11:58.064Z,18.70
2018-02-04T09:14:26.944Z,18.70
2018-02-04T09:16:55.151Z,18.70
2018-02-04T09:19:23.308Z,18.70
2018-02-04T09:21:51.533Z,18.70
2018-02-04T09:24:19.682Z,18.70
2018-02-04T09:26:47.831Z,18.70
2018-02-04T09:29:15.983Z,18.70
2018-02-04T09:31:44.120Z,18.70
2018-02-04T09:34:12.269Z,18.70
2018-02-04T09:36:40.442Z,18.70
2018-02-04T09:39:08.591Z,18.70
2018-02-04T09:41:36.777Z,18.70
2018-02-04T09:44:04.994Z,18.70
2018-02-04T09:46:33.134Z,18.70
2018-02-04T09:49:01.367Z,18.70
2018-02-04T09:51:30.286Z,18.70
2018-02-04T09:53:58.486Z,18.70
2018-02-04T09:56:26.676Z,18.80
2018-02-04T09:58:54.923Z,18.70
2018-02-04T10:01:23.112Z,18.80
2018-02-04T10:03:51.257Z,18.80
2018-02-04T10:06:19.496Z,18.80
2018-02-04T10:08:47.588Z,18.80
2018-02-04T10:11:15.853Z,18.80
2018-02-04T10:13:45.048Z,18.80
2018-02-04T10:16:13.206Z,18.80
2018-02-04T10:18:41.478Z,18.80
2018-02-04T10:21:09.672Z,18.80
2018-02-04T10:23:38.607Z,18.70
2018-02-04T10:26:06.720Z,18.70
2018-02-04T10:28:35.625Z,18.70
2018-02-04T10:31:04.545Z,18.70
2018-02-04T10:33:36.140Z,18.70
2018-02-04T10:36:04.354Z,18.70
2018-02-04T10:38:32.501Z,18.70
2018-02-04T10:41:01.423Z,18.70
2018-02-04T10:43:29.629Z,18.70
2018-02-04T10:46:01.133Z,18.70
2018-02-04T10:48:30.260Z,18.80
2018-02-04T10:51:04.980Z,18.70
2018-02-04T10:53:33.198Z,18.80
2018-02-04T10:56:02.870Z,18.80
2018-02-04T10:58:31.108Z,18.80
2018-02-04T11:00:59.395Z,18.90
2018-02-04T11:03:27.648Z,18.90
2018-02-04T11:05:55.876Z,18.90
2018-02-04T11:08:24.096Z,18.90
2018-02-04T11:10:52.517Z,18.90
2018-02-04T11:13:20.704Z,18.90
2018-02-04T11:15:49.568Z,18.90
2018-02-04T11:18:20.234Z,19.00
2018-02-04T11:20:51.376Z,18.90
2018-02-04T11:23:21.262Z,18.90
2018-02-04T11:25:50.076Z,18.90
2018-02-04T11:28:26.322Z,18.90
2018-02-04T11:30:56.723Z,18.90
2018-02-04T11:33:25.256Z,18.90
2018-02-04T11:35:55.505Z,18.90
2018-02-04T11:38:25.866Z,18.90
2018-02-04T11:40:56.149Z,18.90
2018-02-04T11:43:33.420Z,18.80
2018-02-04T11:46:01.962Z,18.80
2018-02-04T11:48:33.512Z,18.80
2018-02-04T11:51:03.055Z,18.80
2018-02-04T11:53:31.623Z,18.80
2018-02-04T11:55:59.823Z,18.80
2018-02-04T11:58:28.906Z,18.70
2018-02-04T12:00:57.177Z,18.70
2018-02-04T12:03:25.410Z,18.60
2018-02-04T12:05:53.633Z,18.60
2018-02-04T12:08:21.943Z,18.50
2018-02-04T12:10:51.340Z,18.50
2018-02-04T12:13:19.798Z,18.50
2018-02-04T12:15:52.152Z,18.50
2018-02-04T12:18:21.391Z,18.50
2018-02-04T12:20:49.757Z,18.50
2018-02-04T12:23:18.161Z,18.40
2018-02-04T12:25:46.803Z,18.40
2018-02-04T12:28:15.929Z,18.40
2018-02-04T12:30:44.533Z,18.40
2018-02-04T12:33:12.815Z,18.40
2018-02-04T12:35:41.268Z,18.40
2018-02-04T12:38:09.539Z,18.40
2018-02-04T12:40:37.755Z,18.40
2018-02-04T12:43:06.482Z,18.40
2018-02-04T12:45:34.682Z,18.40
2018-02-04T12:48:02.964Z,18.50
2018-02-04T12:50:31.289Z,18.50
2018-02-04T12:52:59.520Z,18.50
2018-02-04T12:55:28.801Z,18.50
2018-02-04T12:57:58.932Z,18.50
2018-02-04T13:00:27.273Z,18.50
2018-02-04T13:02:56.849Z,18.50
2018-02-04T13:05:25.340Z,18.50
2018-02-04T13:07:56.917Z,18.50
2018-02-04T13:10:26.034Z,18.50
2018-02-04T13:12:56.392Z,18.50
2018-02-04T13:15:25.634Z,18.40
2018-02-04T13:17:54.037Z,18.40
2018-02-04T13:20:22.484Z,18.40
2018-02-04T13:22:50.709Z,18.40
2018-02-04T13:25:19.049Z,18.40
2018-02-04T13:27:47.266Z,18.40
2018-02-04T13:30:24.232Z,18.40
2018-02-04T13:32:56.610Z,18.40
2018-02-04T13:35:31.609Z,18.40
2018-02-04T13:38:00.635Z,18.50
2018-02-04T13:40:30.218Z,18.40
2018-02-04T13:43:01.718Z,18.40
2018-02-04T13:45:29.933Z,18.40
2018-02-04T13:47:58.122Z,18.40
2018-02-04T13:50:27.526Z,18.40
2018-02-04T13:52:56.994Z,18.40
2018-02-04T13:55:25.251Z,18.40
2018-02-04T13:57:53.546Z,18.40
2018-02-04T14:00:21.884Z,18.40
2018-02-04T14:02:50.916Z,18.40
2018-02-04T14:05:19.920Z,18.40
2018-02-04T14:07:48.904Z,18.40
2018-02-04T14:10:17.939Z,18.40
2018-02-04T14:12:46.201Z,18.40
2018-02-04T14:15:14.453Z,18.40
2018-02-04T14:17:42.687Z,18.40
2018-02-04T14:20:10.900Z,18.40
2018-02-04T14:22:39.100Z,18.40
2018-02-04T14:25:07.390Z,18.40
2018-02-04T14:27:35.673Z,18.40
2018-02-04T14:30:04.061Z,18.50
2018-02-04T14:32:32.447Z,18.50
2018-02-04T14:35:01.393Z,18.50
2018-02-04T14:37:29.718Z,18.50
2018-02-04T14:39:57.916Z,18.50
2018-02-04T14:42:26.243Z,18.50
2018-02-04T14:44:55.289Z,18.50
2018-02-04T14:47:24.242Z,18.50
2018-02-04T14:49:52.390Z,18.40
2018-02-04T14:52:20.606Z,18.50
2018-02-04T14:54:48.847Z,18.50
2018-02-04T14:57:17.072Z,18.50
2018-02-04T14:59:46.098Z,18.50
2018-02-04T15:02:16.932Z,18.50
2018-02-04T15:04:45.142Z,18.50
2018-02-04T15:07:13.331Z,18.60
2018-02-04T15:09:41.518Z,18.60
2018-02-04T15:12:09.743Z,18.60
2018-02-04T15:14:37.970Z,18.60
2018-02-04T15:17:06.121Z,18.60
2018-02-04T15:19:34.344Z,18.60
2018-02-04T15:22:03.336Z,18.60
2018-02-04T15:24:32.154Z,18.50
2018-02-04T15:27:00.379Z,18.60
2018-02-04T15:29:28.555Z,18.60
2018-02-04T15:31:57.553Z,18.60
2018-02-04T15:34:26.081Z,18.60
2018-02-04T15:36:54.251Z,18.60
2018-02-04T15:39:22.712Z,18.60
2018-02-04T15:41:51.018Z,18.60
2018-02-04T15:44:19.306Z,18.60
2018-02-04T15:46:47.504Z,18.60
2018-02-04T15:49:15.771Z,18.60
2018-02-04T15:51:44.718Z,18.60
2018-02-04T15:54:13.024Z,18.60
2018-02-04T15:56:41.210Z,18.60
2018-02-04T15:59:10.157Z,18.60
2018-02-04T16:01:38.398Z,18.60
2018-02-04T16:04:06.634Z,18.60
2018-02-04T16:06:34.845Z,18.60
2018-02-04T16:09:03.069Z,18.60
2018-02-04T16:11:31.254Z,18.60
2018-02-04T16:13:59.512Z,18.60
2018-02-04T16:16:27.781Z,18.60
2018-02-04T16:18:56.028Z,18.60
2018-02-04T16:21:24.304Z,18.60
2018-02-04T16:23:52.592Z,18.60
2018-02-04T16:26:20.814Z,18.60
2018-02-04T16:28:48.987Z,18.60
2018-02-04T16:31:17.523Z,18.70
2018-02-04T16:33:45.737Z,18.70
2018-02-04T16:36:13.905Z,18.70
2018-02-04T16:38:42.137Z,18.70
2018-02-04T16:41:10.401Z,18.70
2018-02-04T16:43:39.045Z,18.70
2018-02-04T16:46:07.245Z,18.80
2018-02-04T16:48:36.153Z,18.80
2018-02-04T16:51:04.680Z,18.80
2018-02-04T16:53:32.826Z,18.80
2018-02-04T16:56:01.189Z,18.80
2018-02-04T16:58:29.841Z,18.80
2018-02-04T17:00:58.091Z,18.80
2018-02-04T17:03:26.362Z,18.80
2018-02-04T17:05:54.927Z,18.80
2018-02-04T17:08:23.059Z,18.80
2018-02-04T17:10:51.253Z,18.80
2018-02-04T17:13:19.810Z,18.80
2018-02-04T17:15:48.750Z,18.80
2018-02-04T17:18:17.013Z,18.80
2018-02-04T17:20:45.546Z,18.80
2018-02-04T17:23:14.551Z,18.80
2018-02-04T17:25:42.759Z,18.80
2018-02-04T17:28:11.349Z,18.80
2018-02-04T17:30:39.573Z,18.80
2018-02-04T17:33:08.511Z,18.80
2018-02-04T17:35:37.025Z,18.80
2018-02-04T17:38:05.197Z,18.80
2018-02-04T17:40:33.534Z,18.80
2018-02-04T17:43:02.163Z,18.80
2018-02-04T17:45:30.352Z,18.80
2018-02-04T17:47:59.273Z,18.90
2018-02-04T17:50:28.419Z,18.80
2018-02-04T17:52:56.601Z,18.90
2018-02-04T17:55:26.259Z,18.90
2018-02-04T17:57:54.436Z,18.80
2018-02-04T18:00:23.734Z,18.90
2018-02-04T18:02:52.043Z,18.90
2018-02-04T18:05:20.251Z,18.90
2018-02-04T18:07:48.437Z,18.90
2018-02-04T18:10:16.736Z,18.80
2018-02-04T18:12:45.023Z,18.90
2018-02-04T18:15:13.318Z,18.90
2018-02-04T18:17:41.521Z,18.90
2018-02-04T18:20:09.872Z,18.90
2018-02-04T18:22:38.085Z,19.00
2018-02-04T18:25:06.306Z,18.90
2018-02-04T18:27:34.546Z,18.90
2018-02-04T18:30:02.852Z,18.90
2018-02-04T18:32:31.154Z,18.90
2018-02-04T18:34:59.433Z,18.90
2018-02-04T18:37:28.375Z,18.90
2018-02-04T18:39:56.580Z,18.90
2018-02-04T18:42:24.787Z,18.90
2018-02-04T18:44:53.072Z,18.90
2018-02-04T18:47:21.328Z,18.90
2018-02-04T18:49:49.553Z,18.90
2018-02-04T18:52:18.081Z,18.90
2018-02-04T18:54:47.070Z,18.90
2018-02-04T18:57:15.246Z,18.80
2018-02-04T18:59:43.437Z,18.80
2018-02-04T19:02:11.647Z,18.90
2018-02-04T19:04:39.823Z,18.90
2018-02-04T19:07:08.003Z,18.90
2018-02-04T19:09:36.219Z,18.80
2018-02-04T19:12:05.156Z,18.90
2018-02-04T19:14:33.480Z,18.90
2018-02-04T19:17:02.438Z,18.90
2018-02-04T19:19:30.647Z,18.90
2018-02-04T19:21:58.907Z,18.90
2018-02-04T19:24:28.224Z,18.90
2018-02-04T19:26:56.591Z,18.90
2018-02-04T19:29:24.853Z,18.90
2018-02-04T19:31:56.567Z,18.90
2018-02-04T19:34:24.831Z,18.90
2018-02-04T19:36:54.014Z,18.90
2018-02-04T19:39:22.417Z,18.90
2018-02-04T19:41:50.734Z,18.90
2018-02-04T19:44:19.886Z,18.90
2018-02-04T19:46:48.106Z,18.80
2018-02-04T19:49:16.334Z,18.80
2018-02-04T19:51:44.552Z,18.80
2018-02-04T19:54:12.904Z,18.80
2018-02-04T19:56:41.268Z,18.80
2018-02-04T19:59:09.731Z,18.80
2018-02-04T20:01:38.113Z,18.80
2018-02-04T20:04:06.372Z,18.80
2018-02-04T20:06:34.610Z,18.80
2018-02-04T20:09:02.900Z,18.70
2018-02-04T20:11:36.445Z,18.80
2018-02-04T20:14:04.631Z,18.70
2018-02-04T20:16:33.189Z,18.70
2018-02-04T20:19:01.710Z,18.70
2018-02-04T20:21:29.958Z,18.70
2018-02-04T20:23:58.154Z,18.70
2018-02-04T20:26:26.407Z,18.70
2018-02-04T20:28:54.747Z,18.70
2018-02-04T20:31:22.969Z,18.70
2018-02-04T20:34:08.599Z,18.70
2018-02-04T20:36:37.967Z,18.70
2018-02-04T20:39:06.213Z,18.70
2018-02-04T20:41:34.697Z,18.70
2018-02-04T20:44:02.996Z,18.80
2018-02-04T20:46:31.304Z,18.80
2018-02-04T20:48:59.565Z,18.80
2018-02-04T20:51:28.754Z,18.80
2018-02-04T20:53:57.035Z,18.80
2018-02-04T20:56:26.189Z,18.80
2018-02-04T20:58:54.410Z,18.80
2018-02-04T21:01:23.554Z,18.80
2018-02-04T21:03:51.804Z,18.80
2018-02-04T21:06:20.126Z,18.80
2018-02-04T21:08:48.393Z,18.80
2018-02-04T21:11:16.641Z,18.80
2018-02-04T21:13:44.929Z,18.80
2018-02-04T21:16:13.224Z,18.80
2018-02-04T21:18:41.482Z,18.80
2018-02-04T21:21:09.739Z,18.80
2018-02-04T21:23:37.963Z,18.80
2018-02-04T21:26:06.298Z,18.80
2018-02-04T21:28:34.590Z,18.80
2018-02-04T21:31:03.700Z,18.90
2018-02-04T21:33:32.305Z,18.90
2018-02-04T21:36:00.624Z,18.90
2018-02-04T21:38:28.822Z,18.90
2018-02-04T21:40:59.864Z,18.90
2018-02-04T21:43:28.121Z,18.90
2018-02-04T21:45:56.317Z,18.90
2018-02-04T21:48:24.736Z,18.90
2018-02-04T21:50:54.244Z,18.90
2018-02-04T21:53:22.589Z,18.90
2018-02-04T21:55:50.923Z,18.90
2018-02-04T21:58:19.851Z,18.90
2018-02-04T22:00:48.088Z,18.90
2018-02-04T22:03:17.670Z,18.80
2018-02-04T22:05:46.688Z,18.70
2018-02-04T22:08:14.951Z,18.60
2018-02-04T22:10:43.138Z,18.60
2018-02-04T22:13:11.333Z,18.50
2018-02-04T22:15:40.734Z,18.50
2018-02-04T22:18:09.495Z,18.40
2018-02-04T22:20:38.450Z,18.40
2018-02-04T22:23:06.648Z,18.30
2018-02-04T22:25:34.873Z,18.30
2018-02-04T22:28:03.107Z,18.30
2018-02-04T22:30:31.322Z,18.20
2018-02-04T22:32:59.652Z,18.20
2018-02-04T22:35:27.840Z,18.20
2018-02-04T22:37:56.050Z,18.20
2018-02-04T22:40:24.841Z,18.20
2018-02-04T22:42:53.226Z,18.20
2018-02-04T22:59:58.530Z,18.10
